Time;durP1;ratioP1;P1;durP2;ratioP2;P2;SDS_P1;SDS_P2;PMS_P1;PMS_P2;Temp;Humidity;BMP_temperature;BMP_pressure;BME280_temperature;BME280_humidity;BME280_pressure;Samples;Min_cycle;Max_cycle;Signal;HPM_P1;HPM_P2
2023/12/31 00:00:11;;;;;;;;;4.33;4.33;;;;;12.48;86.72;99534.38;4831697;29;45432;-81
2023/12/31 00:02:37;;;;;;;;;4.67;4.67;;;;;12.36;86.87;99532.75;4847656;29;46039;-81
2023/12/31 00:05:03;;;;;;;;;7.67;6.33;;;;;12.41;87.01;99519.34;4847849;29;45583;-80
2023/12/31 00:07:29;;;;;;;;;4.33;4.33;;;;;12.40;86.79;99496.22;4832073;29;47280;-81
2023/12/31 00:09:54;;;;;;;;;4.67;4.67;;;;;12.43;86.93;99506.00;4833225;29;44798;-82
2023/12/31 00:12:20;;;;;;;;;7.00;4.67;;;;;12.40;86.95;99480.25;4834241;29;48104;-81
2023/12/31 00:14:45;;;;;;;;;3.33;3.33;;;;;12.43;86.69;99484.66;4832008;29;45459;-80
2023/12/31 00:17:10;;;;;;;;;4.00;4.00;;;;;12.43;86.88;99485.53;4848449;29;45377;-80
2023/12/31 00:19:36;;;;;;;;;3.33;3.33;;;;;12.45;86.93;99472.19;4829309;29;45338;-80
2023/12/31 00:22:02;;;;;;;;;2.67;2.67;;;;;12.37;87.06;99470.50;4845752;29;45482;-80
2023/12/31 00:24:27;;;;;;;;;5.00;3.67;;;;;12.35;87.12;99469.66;4844286;29;45522;-80
2023/12/31 00:26:52;;;;;;;;;4.00;4.00;;;;;12.39;87.19;99459.81;4828446;29;45523;-81
2023/12/31 00:29:18;;;;;;;;;6.33;6.33;;;;;12.35;87.17;99431.44;4813123;29;45387;-80
2023/12/31 00:31:43;;;;;;;;;8.67;5.67;;;;;12.37;87.38;99449.19;4828342;29;46868;-81
2023/12/31 00:34:10;;;;;;;;;4.00;3.00;;;;;12.35;87.41;99442.97;4829032;29;53143;-81
2023/12/31 00:36:35;;;;;;;;;3.67;3.67;;;;;12.35;87.66;99439.44;4846488;29;45314;-81
2023/12/31 00:39:01;;;;;;;;;4.67;4.67;;;;;12.33;87.73;99442.13;4847384;29;45418;-81
2023/12/31 00:41:27;;;;;;;;;3.67;3.67;;;;;12.34;87.85;99437.66;4846671;29;46316;-80
2023/12/31 00:43:52;;;;;;;;;3.33;3.33;;;;;12.36;87.91;99423.44;4845535;29;45486;-80
2023/12/31 00:46:17;;;;;;;;;5.00;4.33;;;;;12.33;87.81;99414.59;4846453;29;45526;-80
2023/12/31 00:48:43;;;;;;;;;4.00;4.00;;;;;12.40;87.79;99430.47;4830483;29;45385;-80
2023/12/31 00:51:08;;;;;;;;;4.67;4.67;;;;;12.45;88.09;99419.75;4831464;29;47812;-80
2023/12/31 00:53:34;;;;;;;;;4.67;4.67;;;;;12.46;87.75;99413.50;4829921;29;45371;-81
2023/12/31 00:55:59;;;;;;;;;6.67;6.00;;;;;12.50;87.84;99403.66;4847705;29;45408;-81
2023/12/31 00:58:26;;;;;;;;;3.00;3.00;;;;;12.47;87.38;99372.59;4830682;29;45943;-82
2023/12/31 01:00:51;;;;;;;;;3.67;3.67;;;;;12.47;87.50;99388.59;4848032;29;45426;-80
2023/12/31 01:03:16;;;;;;;;;4.00;4.00;;;;;12.54;87.59;99395.63;4846422;29;45469;-80
2023/12/31 01:05:41;;;;;;;;;4.00;4.00;;;;;12.55;87.74;99399.16;4844397;29;53183;-80
2023/12/31 01:08:08;;;;;;;;;4.00;4.00;;;;;12.60;87.34;99371.50;4846024;29;45417;-81
2023/12/31 01:10:33;;;;;;;;;4.00;4.00;;;;;12.58;87.05;99356.41;4845585;29;45739;-81
2023/12/31 01:12:59;;;;;;;;;4.67;3.00;;;;;12.61;86.97;99343.91;4829359;29;45453;-81
2023/12/31 01:15:25;;;;;;;;;4.33;4.33;;;;;12.53;86.96;99337.84;4845295;29;45433;-82
2023/12/31 01:17:51;;;;;;;;;6.67;4.00;;;;;12.56;87.16;99345.81;4846641;29;45335;-80
2023/12/31 01:20:17;;;;;;;;;5.33;5.33;;;;;12.52;86.86;99335.19;4847031;29;45417;-80
2023/12/31 01:22:43;;;;;;;;;5.67;5.33;;;;;12.60;86.85;99344.84;4845198;29;45990;-80
2023/12/31 01:25:09;;;;;;;;;5.67;5.67;;;;;12.55;86.89;99322.69;4828765;29;45504;-81
2023/12/31 01:27:34;;;;;;;;;2.00;2.00;;;;;12.55;86.83;99314.69;4846462;29;45408;-81
2023/12/31 01:29:59;;;;;;;;;5.67;5.67;;;;;12.54;86.58;99306.72;4828854;29;46546;-81
2023/12/31 01:32:25;;;;;;;;;7.33;7.33;;;;;12.53;86.46;99294.28;4846727;29;45400;-82
2023/12/31 01:34:54;;;;;;;;;9.67;7.67;;;;;12.59;86.80;99288.84;4830275;29;45444;-81
2023/12/31 01:37:19;;;;;;;;;8.67;5.00;;;;;12.55;86.68;99293.34;4827438;29;45652;-81
2023/12/31 01:39:44;;;;;;;;;5.67;5.00;;;;;12.59;86.51;99275.53;4827938;29;47533;-80
2023/12/31 01:42:10;;;;;;;;;7.67;7.67;;;;;12.58;86.14;99266.66;4846171;29;45369;-81
2023/12/31 01:44:38;;;;;;;;;5.67;5.67;;;;;12.65;86.35;99256.75;4845314;29;44759;-81
2023/12/31 01:47:04;;;;;;;;;6.33;6.00;;;;;12.59;86.19;99256.84;4847414;29;49783;-81
2023/12/31 01:49:30;;;;;;;;;8.00;7.00;;;;;12.56;86.09;99263.13;4829627;29;47029;-81
2023/12/31 01:51:57;;;;;;;;;4.00;4.00;;;;;12.67;86.34;99249.59;4845021;29;45861;-81
2023/12/31 01:54:24;;;;;;;;;8.00;4.67;;;;;12.61;86.39;99255.91;4830166;29;45479;-80
2023/12/31 01:56:51;;;;;;;;;5.00;5.00;;;;;12.64;86.13;99260.28;4830170;29;45424;-80
2023/12/31 01:59:17;;;;;;;;;3.33;3.33;;;;;12.59;86.21;99252.38;4845499;29;46000;-80
2023/12/31 02:01:45;;;;;;;;;5.75;5.50;;;;;12.57;85.64;99211.53;4844265;29;45904;-80
2023/12/31 02:04:10;;;;;;;;;7.00;7.00;;;;;12.56;85.49;99206.22;4828856;29;45569;-80
2023/12/31 02:06:36;;;;;;;;;4.00;3.50;;;;;12.59;85.81;99203.50;4843051;29;45435;-82
2023/12/31 02:09:03;;;;;;;;;7.00;5.00;;;;;12.68;85.77;99213.13;4843158;29;45417;-80
2023/12/31 02:11:28;;;;;;;;;4.00;4.00;;;;;12.61;85.69;99210.56;4827803;29;45480;-80
2023/12/31 02:13:54;;;;;;;;;8.67;7.33;;;;;12.64;85.68;99204.28;4828617;29;45847;-80
2023/12/31 02:16:19;;;;;;;;;5.67;5.67;;;;;12.59;85.67;99187.50;4845388;29;45431;-80
2023/12/31 02:18:44;;;;;;;;;3.00;3.00;;;;;12.57;85.42;99179.53;4828147;29;48157;-80
2023/12/31 02:24:39;;;;;;;;;7.00;6.67;;;;;12.59;85.47;99153.72;4845216;29;45415;-80
2023/12/31 02:27:05;;;;;;;;;4.00;4.00;;;;;12.47;85.68;99161.94;4830215;29;45461;-80
2023/12/31 02:29:30;;;;;;;;;5.67;5.67;;;;;12.47;85.65;99167.28;4830180;29;48338;-80
2023/12/31 02:31:55;;;;;;;;;5.67;5.00;;;;;12.48;85.54;99168.16;4828715;29;45473;-80
2023/12/31 02:34:21;;;;;;;;;5.67;5.67;;;;;12.45;85.29;99154.91;4843777;29;45506;-80
2023/12/31 02:36:46;;;;;;;;;4.00;4.00;;;;;12.46;85.33;99154.84;4828291;29;45545;-80
2023/12/31 02:39:11;;;;;;;;;4.67;4.00;;;;;12.49;85.29;99165.47;4844384;29;47342;-81
2023/12/31 02:41:37;;;;;;;;;3.00;3.00;;;;;12.51;85.20;99154.78;4848490;29;45445;-80
2023/12/31 02:44:02;;;;;;;;;3.00;3.00;;;;;12.51;84.70;99158.31;4848513;29;45463;-80
2023/12/31 02:46:29;;;;;;;;;4.67;4.67;;;;;12.51;84.34;99162.78;4848069;29;44777;-81
2023/12/31 02:48:54;;;;;;;;;8.67;3.67;;;;;12.56;84.34;99164.47;4845652;29;48139;-81
2023/12/31 02:51:20;;;;;;;;;4.00;4.00;;;;;12.63;84.42;99167.00;4847951;29;45331;-81
2023/12/31 02:53:45;;;;;;;;;6.00;4.33;;;;;12.67;84.37;99163.38;4846687;29;45389;-81
2023/12/31 02:59:35;;;;;;;;;8.67;3.00;;;;;12.80;82.71;99148.84;4848935;29;45560;-80
2023/12/31 03:02:02;;;;;;;;;4.00;4.00;;;;;12.74;83.11;99140.97;4832055;29;45366;-79
2023/12/31 03:04:27;;;;;;;;;3.00;3.00;;;;;12.75;83.20;99142.75;4831029;29;45669;-80
2023/12/31 03:06:52;;;;;;;;;3.00;3.00;;;;;12.86;82.85;99147.84;4847438;29;45693;-80
2023/12/31 03:09:19;;;;;;;;;4.00;4.00;;;;;12.91;82.89;99130.84;4845320;29;46030;-81
2023/12/31 03:11:45;;;;;;;;;5.00;5.00;;;;;12.93;81.71;99139.69;4845338;29;45233;-80
2023/12/31 03:14:10;;;;;;;;;5.25;4.00;;;;;12.91;85.87;99114.84;4829522;29;45565;-80
2023/12/31 03:16:36;;;;;;;;;7.33;5.00;;;;;12.88;87.19;99085.53;4847027;29;45444;-80
2023/12/31 03:19:02;;;;;;;;;3.00;3.00;;;;;12.87;84.64;99091.78;4825861;29;47401;-80
2023/12/31 03:21:27;;;;;;;;;9.00;5.67;;;;;12.88;84.68;99085.53;4813760;29;45888;-80
2023/12/31 03:23:54;;;;;;;;;7.67;6.67;;;;;13.01;84.39;99095.03;4813411;29;44781;-81
2023/12/31 03:26:20;;;;;;;;;3.33;3.33;;;;;12.91;84.12;99077.47;4814196;29;45368;-80
2023/12/31 03:28:51;;;;;;;;;6.00;4.75;;;;;13.09;83.67;99060.16;4814608;29;47971;-80
2023/12/31 03:31:17;;;;;;;;;5.00;5.00;;;;;12.94;83.48;99065.84;4815930;29;45416;-80
2023/12/31 03:33:42;;;;;;;;;4.00;3.00;;;;;12.97;83.46;99064.00;4829542;29;45501;-80
2023/12/31 03:36:08;;;;;;;;;4.00;2.75;;;;;13.01;83.15;99052.34;4831209;29;45329;-79
2023/12/31 03:38:33;;;;;;;;;4.67;4.00;;;;;13.07;82.92;99055.75;4829361;29;47070;-80
2023/12/31 03:40:58;;;;;;;;;3.00;3.00;;;;;13.03;82.69;99060.31;4829708;29;45806;-80
2023/12/31 03:43:24;;;;;;;;;2.33;2.33;;;;;13.15;83.09;99048.47;4811563;29;45420;-81
2023/12/31 03:45:49;;;;;;;;;3.33;3.33;;;;;13.15;82.85;99051.16;4828905;29;45428;-80
2023/12/31 03:48:14;;;;;;;;;4.00;4.00;;;;;13.15;83.40;99048.47;4827083;29;45732;-80
2023/12/31 03:50:40;;;;;;;;;3.00;2.67;;;;;13.14;84.43;99044.03;4826807;29;45393;-80
2023/12/31 03:53:05;;;;;;;;;4.67;3.00;;;;;13.10;84.64;99042.34;4825942;29;45395;-79
2023/12/31 03:55:30;;;;;;;;;2.00;2.00;;;;;13.09;85.30;99043.25;4826532;29;45394;-80
2023/12/31 03:57:56;;;;;;;;;7.00;4.00;;;;;13.02;86.16;99037.19;4811171;29;56645;-80
2023/12/31 04:00:23;;;;;;;;;4.00;4.00;;;;;12.99;86.87;99027.47;4811705;29;45650;-80
2023/12/31 04:02:48;;;;;;;;;2.00;2.00;;;;;12.87;87.39;99027.75;4827594;29;45480;-80
2023/12/31 04:05:13;;;;;;;;;3.00;3.00;;;;;12.80;89.16;99036.81;4827977;29;45466;-80
2023/12/31 04:07:39;;;;;;;;;3.67;3.67;;;;;12.71;89.92;99045.91;4827085;29;45591;-80
2023/12/31 04:10:04;;;;;;;;;3.00;3.00;;;;;12.68;91.02;99043.28;4810433;29;45612;-79
2023/12/31 04:12:30;;;;;;;;;6.67;5.33;;;;;12.66;91.92;99049.56;4827583;29;45482;-79
2023/12/31 04:14:55;;;;;;;;;4.00;4.00;;;;;12.66;92.35;99060.25;4826952;29;45432;-79
2023/12/31 04:17:21;;;;;;;;;2.33;2.33;;;;;12.61;95.65;99026.53;4824636;29;45361;-80
2023/12/31 04:20:36;;;;;;;;;1.00;1.00;;;;;12.67;95.45;99014.00;4826278;29;45378;-80
2023/12/31 04:23:03;;;;;;;;;1.00;1.00;;;;;12.44;95.31;98990.50;4830031;29;44970;-80
2023/12/31 04:25:28;;;;;;;;;2.00;2.00;;;;;12.40;94.31;98985.25;4831096;29;45472;-80
2023/12/31 04:27:53;;;;;;;;;1.33;1.00;;;;;12.38;93.56;98983.50;4845144;29;45537;-81
2023/12/31 04:30:19;;;;;;;;;1.00;1.00;;;;;12.45;92.60;98987.78;4846027;29;45475;-79
2023/12/31 04:32:44;;;;;;;;;0.00;0.00;;;;;12.41;91.70;98994.97;4846866;29;45415;-82
2023/12/31 04:35:12;;;;;;;;;2.50;2.00;;;;;12.46;91.24;98989.53;4846505;29;45475;-80
2023/12/31 04:37:38;;;;;;;;;1.50;1.50;;;;;12.36;90.16;98998.63;4829191;29;47103;-80
2023/12/31 04:40:05;;;;;;;;;0.00;0.00;;;;;12.50;89.78;98990.34;4844731;29;62722;-80
2023/12/31 04:42:30;;;;;;;;;0.50;0.50;;;;;12.39;88.23;98999.47;4829604;29;45592;-81
2023/12/31 04:45:34;;;;;;;;;0.00;0.00;;;;;12.59;87.06;98991.03;4829649;29;45464;-83
2023/12/31 04:48:02;;;;;;;;;1.00;0.00;;;;;12.50;86.85;99009.91;4828836;29;48267;-81
2023/12/31 04:50:27;;;;;;;;;0.00;0.00;;;;;12.40;85.68;99003.91;4846701;29;45516;-80
2023/12/31 04:52:53;;;;;;;;;0.00;0.00;;;;;12.41;84.62;99007.44;4830160;29;45324;-79
2023/12/31 04:55:18;;;;;;;;;0.00;0.00;;;;;12.37;84.66;99016.41;4846946;29;45818;-80
2023/12/31 04:57:44;;;;;;;;;0.00;0.00;;;;;12.35;84.52;99015.56;4846131;29;45419;-80
2023/12/31 05:00:10;;;;;;;;;0.00;0.00;;;;;12.30;85.75;99021.00;4847064;29;45450;-80
2023/12/31 05:02:35;;;;;;;;;0.75;0.00;;;;;12.27;85.45;99026.38;4844861;29;45398;-80
2023/12/31 05:05:02;;;;;;;;;0.75;0.00;;;;;12.28;84.64;99022.81;4830095;29;45338;-79
2023/12/31 05:07:29;;;;;;;;;0.00;0.00;;;;;12.32;100.00;99018.28;4847384;29;45501;-80
2023/12/31 05:09:55;;;;;;;;;1.00;0.00;;;;;12.32;100.00;99028.94;4829979;29;45850;-82
2023/12/31 05:12:21;;;;;;;;;0.00;0.00;;;;;12.26;100.00;99018.41;4844156;29;45686;-80
2023/12/31 05:14:47;;;;;;;;;0.50;0.00;;;;;12.27;100.00;99030.84;4847039;29;45820;-79
2023/12/31 05:17:12;;;;;;;;;1.00;0.00;;;;;12.21;100.00;98999.84;4846424;29;45557;-79
2023/12/31 05:19:39;;;;;;;;;1.25;1.25;;;;;12.23;100.00;98997.16;4845991;29;45390;-80
2023/12/31 05:22:04;;;;;;;;;1.25;0.00;;;;;12.20;100.00;99009.66;4848191;29;45468;-80
2023/12/31 05:24:30;;;;;;;;;1.00;1.00;;;;;12.21;100.00;99007.84;4831244;29;45645;-80
2023/12/31 05:27:02;;;;;;;;;1.00;0.00;;;;;12.20;100.00;98995.44;4828314;29;47375;-80
2023/12/31 05:29:27;;;;;;;;;0.00;0.00;;;;;12.14;100.00;98998.22;4829848;29;46048;-80
2023/12/31 05:31:53;;;;;;;;;0.00;0.00;;;;;12.18;100.00;98992.81;4846331;29;45798;-79
2023/12/31 05:34:18;;;;;;;;;0.00;0.00;;;;;12.17;100.00;99006.16;4846650;29;45242;-80
2023/12/31 05:36:43;;;;;;;;;0.00;0.00;;;;;12.16;100.00;98997.28;4830309;29;47934;-81
2023/12/31 05:39:09;;;;;;;;;2.00;0.50;;;;;12.07;91.15;98976.16;4845292;29;45431;-80
2023/12/31 05:41:35;;;;;;;;;1.00;0.00;;;;;12.13;89.65;98970.69;4845006;29;45361;-80
2023/12/31 05:44:34;;;;;;;;;0.00;0.00;;;;;12.26;87.13;98962.44;4845557;29;45466;-80
2023/12/31 05:47:00;;;;;;;;;0.00;0.00;;;;;12.02;84.45;98967.38;4828561;29;47447;-81
2023/12/31 05:49:25;;;;;;;;;0.75;0.75;;;;;11.95;83.77;98961.28;4828988;29;45365;-80
2023/12/31 05:51:50;;;;;;;;;0.00;0.00;;;;;11.95;84.37;98955.09;4846356;29;57500;-80
2023/12/31 05:54:16;;;;;;;;;0.00;0.00;;;;;11.91;82.69;98938.28;4844352;29;52123;-81
2023/12/31 05:56:43;;;;;;;;;0.00;0.00;;;;;11.85;82.30;98945.50;4846254;29;45430;-80
2023/12/31 05:59:08;;;;;;;;;0.00;0.00;;;;;11.74;82.54;98954.56;4844461;29;45790;-80
2023/12/31 06:01:33;;;;;;;;;0.00;0.00;;;;;11.67;82.56;98966.25;4827925;29;49760;-81
2023/12/31 06:03:59;;;;;;;;;0.00;0.00;;;;;11.68;82.05;98978.66;4827886;29;45447;-81
2023/12/31 06:06:24;;;;;;;;;0.00;0.00;;;;;11.57;82.00;98976.22;4843326;29;48318;-81
2023/12/31 06:08:51;;;;;;;;;0.00;0.00;;;;;11.63;81.84;98985.84;4845177;29;44731;-81
2023/12/31 06:11:16;;;;;;;;;0.00;0.00;;;;;11.60;82.11;99001.88;4846238;29;45349;-81
2023/12/31 06:13:41;;;;;;;;;0.00;0.00;;;;;11.64;82.84;98995.59;4831313;29;45562;-81
2023/12/31 06:16:09;;;;;;;;;0.00;0.00;;;;;11.65;81.31;99013.31;4846867;29;47356;-80
2023/12/31 06:18:35;;;;;;;;;0.00;0.00;;;;;11.69;81.34;99015.03;4847704;29;45562;-82
2023/12/31 06:21:00;;;;;;;;;0.00;0.00;;;;;11.72;81.63;99014.09;4831119;29;45536;-81
2023/12/31 06:23:26;;;;;;;;;0.00;0.00;;;;;11.70;79.38;99000.81;4850603;29;45543;-81
2023/12/31 06:25:53;;;;;;;;;0.00;0.00;;;;;11.75;79.61;99001.59;4849267;29;46334;-82
2023/12/31 06:28:19;;;;;;;;;1.00;0.00;;;;;11.76;79.34;99008.69;4849916;29;45404;-81
2023/12/31 06:30:44;;;;;;;;;0.00;0.00;;;;;11.78;79.28;99017.53;4833561;29;45495;-81
2023/12/31 06:33:09;;;;;;;;;0.00;0.00;;;;;11.76;78.17;99014.00;4832417;29;45893;-81
2023/12/31 06:35:35;;;;;;;;;0.00;0.00;;;;;11.75;77.28;99012.25;4848555;29;46482;-81
2023/12/31 06:38:00;;;;;;;;;0.00;0.00;;;;;11.76;78.58;99031.78;4848461;29;45454;-81
2023/12/31 06:40:27;;;;;;;;;0.50;0.50;;;;;11.80;77.40;99028.16;4846332;29;47925;-81
2023/12/31 06:42:52;;;;;;;;;0.00;0.00;;;;;11.76;77.35;99030.00;4831531;29;45592;-81
2023/12/31 06:45:18;;;;;;;;;0.00;0.00;;;;;11.80;78.16;99033.50;4847700;29;46015;-80
2023/12/31 06:47:43;;;;;;;;;0.00;0.00;;;;;11.79;76.95;99039.69;4848356;29;45352;-81
2023/12/31 06:50:10;;;;;;;;;0.00;0.00;;;;;11.80;78.05;99042.34;4848764;29;45550;-80
2023/12/31 06:52:36;;;;;;;;;0.50;0.00;;;;;11.82;77.81;99047.66;4846816;29;45477;-81
2023/12/31 06:55:01;;;;;;;;;0.00;0.00;;;;;11.85;77.39;99058.22;4849387;29;45590;-80
2023/12/31 06:57:28;;;;;;;;;0.00;0.00;;;;;11.78;77.32;99065.47;4849888;29;45353;-81
2023/12/31 06:59:56;;;;;;;;;0.25;0.25;;;;;11.87;78.13;99063.53;4847420;29;45603;-80
2023/12/31 07:02:22;;;;;;;;;1.75;0.25;;;;;11.78;77.55;99081.44;4830985;29;45400;-81
2023/12/31 07:04:47;;;;;;;;;0.00;0.00;;;;;11.80;77.22;99079.63;4847132;29;45503;-81
2023/12/31 07:07:12;;;;;;;;;0.00;0.00;;;;;11.76;77.71;99109.03;4848291;29;45545;-81
2023/12/31 07:09:38;;;;;;;;;0.00;0.00;;;;;11.69;77.56;99092.25;4832306;29;45528;-81
2023/12/31 07:12:03;;;;;;;;;0.00;0.00;;;;;11.68;77.42;99105.63;4847848;29;45462;-80
2023/12/31 07:14:29;;;;;;;;;0.00;0.00;;;;;11.57;77.99;99101.34;4831575;29;48265;-80
2023/12/31 07:16:55;;;;;;;;;0.00;0.00;;;;;11.56;78.16;99096.03;4846823;29;45484;-82
2023/12/31 07:19:20;;;;;;;;;0.00;0.00;;;;;11.55;77.96;99126.22;4831316;29;45483;-80
2023/12/31 07:21:46;;;;;;;;;1.00;1.00;;;;;11.53;77.22;99128.03;4846127;29;45402;-80
2023/12/31 07:24:11;;;;;;;;;0.00;0.00;;;;;11.47;77.52;99101.50;4848131;29;45074;-80
2023/12/31 07:26:37;;;;;;;;;0.00;0.00;;;;;11.47;77.54;99130.78;4830847;29;45509;-80
2023/12/31 07:29:02;;;;;;;;;0.00;0.00;;;;;11.48;77.54;99129.88;4848432;29;45357;-81
2023/12/31 07:31:27;;;;;;;;;0.00;0.00;;;;;11.44;77.35;99141.50;4847225;29;45631;-80
2023/12/31 07:33:53;;;;;;;;;0.00;0.00;;;;;11.38;77.35;99134.47;4847134;29;48416;-81
2023/12/31 07:36:18;;;;;;;;;0.00;0.00;;;;;11.39;77.40;99142.44;4846108;29;45854;-80
2023/12/31 07:38:43;;;;;;;;;0.00;0.00;;;;;11.29;77.31;99143.47;4830413;29;45754;-80
2023/12/31 07:41:13;;;;;;;;;0.00;0.00;;;;;11.38;77.14;99153.97;4847891;29;45414;-81
2023/12/31 07:43:39;;;;;;;;;0.00;0.00;;;;;11.27;77.60;99179.88;4830386;29;47352;-81
2023/12/31 07:46:05;;;;;;;;;0.00;0.00;;;;;11.28;77.28;99181.63;4848288;29;45468;-81
2023/12/31 07:48:30;;;;;;;;;1.00;0.00;;;;;11.23;77.50;99183.50;4847504;29;45477;-80
2023/12/31 07:50:56;;;;;;;;;0.00;0.00;;;;;11.23;77.39;99194.13;4847328;29;45401;-79
2023/12/31 07:53:21;;;;;;;;;0.00;0.00;;;;;11.23;76.61;99209.19;4833871;29;47208;-79
2023/12/31 07:55:47;;;;;;;;;0.00;0.00;;;;;11.17;76.67;99208.41;4848915;29;45502;-80
2023/12/31 07:58:13;;;;;;;;;0.25;0.00;;;;;11.18;77.23;99222.56;4832898;29;45362;-82
2023/12/31 08:00:38;;;;;;;;;0.00;0.00;;;;;11.19;76.47;99229.66;4846009;29;45556;-79
2023/12/31 08:03:04;;;;;;;;;0.00;0.00;;;;;11.21;76.45;99227.88;4829625;29;47052;-80
2023/12/31 08:05:32;;;;;;;;;0.33;0.00;;;;;11.18;76.60;99250.06;4832480;29;44998;-79
2023/12/31 08:07:58;;;;;;;;;0.00;0.00;;;;;11.23;76.54;99250.00;4846585;29;45873;-80
2023/12/31 08:10:24;;;;;;;;;1.00;1.00;;;;;11.11;76.90;99243.06;4846880;29;45410;-80
2023/12/31 08:12:49;;;;;;;;;0.25;0.25;;;;;11.18;76.63;99267.81;4830300;29;48166;-80
2023/12/31 08:15:15;;;;;;;;;3.00;1.00;;;;;11.19;76.48;99250.94;4847724;29;45463;-81
2023/12/31 08:17:41;;;;;;;;;0.25;0.25;;;;;11.17;76.20;99252.75;4847465;29;45409;-80
2023/12/31 08:20:07;;;;;;;;;0.00;0.00;;;;;11.22;76.17;99256.22;4846736;29;45559;-80
2023/12/31 08:22:32;;;;;;;;;0.25;0.25;;;;;11.22;76.45;99266.88;4830639;29;47250;-80
2023/12/31 08:25:01;;;;;;;;;0.00;0.00;;;;;11.27;76.36;99267.72;4848284;29;45411;-81
2023/12/31 08:27:26;;;;;;;;;0.75;0.00;;;;;11.32;76.21;99268.50;4832428;29;45455;-81
2023/12/31 08:29:51;;;;;;;;;2.00;2.00;;;;;11.32;75.92;99260.53;4848994;29;45645;-80
2023/12/31 08:32:18;;;;;;;;;0.00;0.00;;;;;11.34;75.92;99276.47;4847276;29;45916;-80
2023/12/31 08:34:45;;;;;;;;;1.00;0.00;;;;;11.38;75.89;99289.72;4830828;29;46283;-81
2023/12/31 08:37:10;;;;;;;;;1.33;1.00;;;;;11.36;75.26;99296.84;4846176;29;45521;-81
2023/12/31 08:39:40;;;;;;;;;0.00;0.00;;;;;11.33;75.55;99291.59;4845350;29;45419;-80
2023/12/31 08:42:06;;;;;;;;;0.00;0.00;;;;;11.32;75.73;99294.25;4828789;29;47396;-80
2023/12/31 08:47:53;;;;;;;;;2.00;0.00;;;;;11.32;75.33;99312.88;4846236;29;45709;-79
2023/12/31 08:50:19;;;;;;;;;1.00;1.00;;;;;11.31;75.51;99319.09;4830882;29;45449;-80
2023/12/31 08:52:46;;;;;;;;;0.00;0.00;;;;;11.40;75.76;99332.31;4847902;29;45688;-80
2023/12/31 08:55:13;;;;;;;;;2.00;0.00;;;;;11.36;75.46;99315.47;4847392;29;45371;-79
2023/12/31 08:58:34;;;;;;;;;1.00;0.00;;;;;11.52;75.65;99310.84;4844947;29;45442;-80
2023/12/31 09:00:59;;;;;;;;;1.00;1.00;;;;;11.39;75.14;99319.88;4846656;29;45342;-80
2023/12/31 09:03:25;;;;;;;;;0.50;0.50;;;;;11.47;74.72;99322.44;4846238;29;45380;-80
2023/12/31 09:05:50;;;;;;;;;1.00;1.00;;;;;11.54;74.69;99318.81;4828993;29;45307;-80
2023/12/31 09:08:16;;;;;;;;;3.00;1.00;;;;;11.60;74.71;99321.41;4845060;29;45593;-80
2023/12/31 09:10:42;;;;;;;;;1.00;0.75;;;;;11.89;74.12;99334.34;4843422;29;44850;-80
2023/12/31 09:13:08;;;;;;;;;1.00;1.00;;;;;12.08;73.12;99355.41;4845085;29;46122;-80
2023/12/31 09:15:35;;;;;;;;;0.25;0.25;;;;;12.20;72.44;99353.47;4829267;29;44991;-80
2023/12/31 09:18:00;;;;;;;;;1.00;1.00;;;;;12.07;73.36;99354.53;4829334;29;45551;-79
2023/12/31 09:20:26;;;;;;;;;2.00;0.75;;;;;12.37;72.85;99347.00;4846511;29;45472;-79
2023/12/31 09:22:53;;;;;;;;;1.50;1.00;;;;;12.33;72.62;99354.16;4829408;29;47263;-80
2023/12/31 09:25:19;;;;;;;;;0.75;0.75;;;;;12.45;72.78;99366.41;4829321;29;45338;-79
2023/12/31 09:27:45;;;;;;;;;1.75;0.00;;;;;12.13;71.63;99349.13;4829547;29;45900;-80
2023/12/31 09:30:16;;;;;;;;;0.00;0.00;;;;;12.27;72.62;99369.38;4846661;29;45396;-80
2023/12/31 09:32:42;;;;;;;;;1.50;1.00;;;;;12.07;71.87;99365.19;4828948;29;47067;-80
2023/12/31 09:35:07;;;;;;;;;1.25;0.25;;;;;12.13;72.38;99364.22;4847205;29;45461;-81
2023/12/31 09:37:34;;;;;;;;;1.75;1.75;;;;;12.15;71.61;99391.75;4830553;29;45786;-80
2023/12/31 09:40:04;;;;;;;;;2.00;0.00;;;;;12.25;72.62;99385.38;4830011;29;45554;-81
2023/12/31 09:42:50;;;;;;;;;1.00;1.00;;;;;12.30;71.31;99394.19;4845871;29;45450;-81
2023/12/31 09:45:21;;;;;;;;;2.75;2.75;;;;;12.25;71.28;99379.16;4830193;29;45368;-80
2023/12/31 09:47:49;;;;;;;;;2.00;1.50;;;;;12.24;71.91;99393.38;4830454;29;45375;-80
2023/12/31 09:50:18;;;;;;;;;3.25;1.75;;;;;12.25;71.45;99395.16;4849599;29;45558;-81
2023/12/31 09:52:47;;;;;;;;;1.00;1.00;;;;;12.13;71.73;99394.41;4815940;29;47416;-82
2023/12/31 09:55:18;;;;;;;;;1.50;0.75;;;;;12.22;72.13;99404.09;4831299;29;45531;-81
2023/12/31 09:57:46;;;;;;;;;2.00;2.00;;;;;12.29;71.34;99405.75;4847879;29;45166;-80
2023/12/31 10:00:13;;;;;;;;;2.75;1.00;;;;;12.32;71.26;99396.81;4833350;29;45395;-81
2023/12/31 10:02:39;;;;;;;;;3.25;1.00;;;;;12.22;71.07;99401.44;4849972;29;45427;-81
2023/12/31 10:05:05;;;;;;;;;2.25;1.25;;;;;12.30;71.36;99403.97;4831940;29;45887;-81
2023/12/31 10:07:31;;;;;;;;;1.50;1.50;;;;;12.24;71.45;99412.94;4848877;29;45404;-80
2023/12/31 10:10:00;;;;;;;;;2.00;2.00;;;;;12.27;71.90;99414.69;4849261;29;45442;-80
2023/12/31 10:12:27;;;;;;;;;1.00;1.00;;;;;12.28;71.02;99412.00;4830930;29;47135;-81
2023/12/31 10:14:53;;;;;;;;;2.00;1.25;;;;;12.34;71.44;99421.66;4848735;29;45434;-80
2023/12/31 10:17:19;;;;;;;;;2.00;2.00;;;;;12.42;71.33;99419.78;4832203;29;45394;-80
2023/12/31 10:19:45;;;;;;;;;1.00;1.00;;;;;12.50;71.67;99430.34;4849648;29;45461;-80
2023/12/31 10:22:12;;;;;;;;;1.00;1.00;;;;;12.53;71.37;99407.16;4832407;29;48081;-80
2023/12/31 10:24:37;;;;;;;;;2.25;1.25;;;;;12.61;70.63;99425.72;4832658;29;45837;-80
2023/12/31 10:27:08;;;;;;;;;5.67;3.33;;;;;12.67;71.07;99408.75;4832970;29;45473;-80
2023/12/31 10:29:34;;;;;;;;;2.33;1.67;;;;;12.74;70.52;99405.06;4831910;29;45824;-80
2023/12/31 10:32:01;;;;;;;;;1.75;1.75;;;;;12.88;70.69;99411.06;4829817;29;48710;-81
2023/12/31 10:34:26;;;;;;;;;1.00;1.00;;;;;12.87;71.07;99413.78;4846945;29;45530;-80
2023/12/31 10:37:03;;;;;;;;;2.00;1.00;;;;;13.00;70.63;99402.84;4847502;29;45780;-80
2023/12/31 10:39:31;;;;;;;;;4.25;2.00;;;;;12.92;70.45;99398.53;4849438;29;45459;-79
2023/12/31 10:42:05;;;;;;;;;1.75;1.00;;;;;12.97;70.57;99392.22;4848086;29;45360;-79
2023/12/31 10:44:37;;;;;;;;;1.00;1.00;;;;;13.04;70.10;99395.66;4847939;29;45343;-80
2023/12/31 10:47:04;;;;;;;;;3.75;1.00;;;;;13.04;69.50;99386.78;4847395;29;45423;-80
2023/12/31 10:49:32;;;;;;;;;3.00;1.25;;;;;12.97;70.47;99373.53;4848842;29;45475;-81
2023/12/31 10:52:00;;;;;;;;;3.00;2.00;;;;;13.11;69.28;99381.31;4848769;29;45583;-80
2023/12/31 10:54:51;;;;;;;;;2.50;2.50;;;;;13.24;69.11;99373.94;4831087;29;45561;-80
2023/12/31 10:57:21;;;;;;;;;2.50;2.00;;;;;13.15;68.81;99375.00;4848165;29;45448;-81
2023/12/31 10:59:51;;;;;;;;;4.00;2.50;;;;;13.28;68.52;99374.78;4849213;29;44832;-81
2023/12/31 11:02:20;;;;;;;;;1.75;1.75;;;;;13.25;69.28;99365.03;4861923;29;45098;-82
2023/12/31 11:04:49;;;;;;;;;4.00;4.00;;;;;13.22;68.03;99370.44;4863109;29;44814;-82
2023/12/31 11:07:16;;;;;;;;;4.00;4.00;;;;;13.13;67.10;99370.63;4864660;29;44875;-82
2023/12/31 11:09:48;;;;;;;;;3.00;3.00;;;;;13.09;67.60;99344.84;4849305;29;45248;-83
2023/12/31 11:12:18;;;;;;;;;6.50;1.50;;;;;13.17;67.77;99365.19;4847095;29;47259;-82
2023/12/31 11:14:56;;;;;;;;;1.50;1.50;;;;;13.20;66.82;99358.91;4866136;29;44839;-82
2023/12/31 11:17:31;;;;;;;;;2.75;1.75;;;;;13.15;67.09;99363.47;4847936;29;44815;-82
2023/12/31 11:20:17;;;;;;;;;7.67;5.00;;;;;13.24;67.19;99376.63;4846084;29;45022;-82
2023/12/31 11:22:48;;;;;;;;;3.33;2.67;;;;;13.26;66.89;99358.78;4804980;29;47298;-82
2023/12/31 11:25:19;;;;;;;;;1.25;1.00;;;;;13.20;66.81;99357.09;4806384;29;44922;-82
2023/12/31 11:27:53;;;;;;;;;3.25;2.50;;;;;13.11;65.64;99345.72;4806438;29;44851;-82
2023/12/31 11:30:55;;;;;;;;;5.50;1.25;;;;;13.29;64.17;99348.09;4806006;29;44906;-82
2023/12/31 11:33:31;;;;;;;;;9.00;2.00;;;;;13.25;64.78;99369.47;4808294;29;47462;-82
2023/12/31 11:36:05;;;;;;;;;3.67;3.00;;;;;13.15;64.38;99371.47;4824818;29;45072;-82
2023/12/31 11:38:53;;;;;;;;;4.00;3.00;;;;;13.36;65.20;99351.50;4824804;29;44799;-82
2023/12/31 11:41:19;;;;;;;;;3.67;3.67;;;;;13.19;62.21;99351.81;4823832;29;44849;-82
2023/12/31 11:43:45;;;;;;;;;2.50;1.75;;;;;13.19;64.09;99351.81;4824138;29;45307;-82